Terminal Aerodrome Forecast
Issued by NWS Duluth, MN

Home | Current Version | Previous Version | Text Only | Print | Product List | Glossary On
Versions: 1 2 3 4 5 6 7 8 9 10 11 12 13 14 15 16 17 18 19 20 21 22 23 24 25 26 27 28
000
FTUS43 KDLH 281900 AAA
TAFDLH
TAF AMD
KDLH 281925Z 2819/2918 11012G20KT P6SM SCT006
     FM282200 09014KT P6SM VCSH SCT010
      TEMPO 2822/2824 BKN010
     FM290200 13007KT 4SM BR VCSH OVC010 WS020/21035KT
      TEMPO 2902/2904 2SM -SHRA BR OVC004
     FM290400 11006KT 2SM -DZ BR OVC004
     FM291600 28006KT 5SM BR OVC014=

USA.gov is the U.S. government's official web portal to all federal, state and local government web resources and services.